Diane G — DIANEG — position and weather

sailwx.info

Track history (hours):
 
Tides and Currents Weather Stations Pressure Air Temp Water Temp Dewpoint Dewpoint Depression Visibility Wind Speed Wind Dir Waves Ship Positions

Diane G

Last reported at 2014-Dec-10 18:33 UTC. Time now 2014-Dec-20 20:11 UTC.
Position N 34°05' W 119°10'.
Warning: this ship's position is 10 days out of date.

Length 35 m; draft 2.5 m.

Type: Military. MMSI: 369970281.

Date/timePositionNaut miles runAvg speedWind from/ knotsBaromVisibWave heightAir tempDewpointWater temp
2014-Dec-10 18:33N 34°05' W 119°10'9 9.3
2014-Dec-10 17:34N 33°59' W 119°02'9 9.5
2014-Dec-10 16:33N 33°52' W 118°54'9 9.4
2014-Dec-10 15:33N 33°46' W 118°46'12 9.5
2014-Dec-10 14:20N 33°38' W 118°35'7 9.3
2014-Dec-10 13:32N 33°32' W 118°29'10 9.2
2014-Dec-10 12:30N 33°26' W 118°21'9 9.6
2014-Dec-10 11:33N 33°20' W 118°13'10 9.6
2014-Dec-10 10:33N 33°14' W 118°04'10 9.5
2014-Dec-10 09:33N 33°07' W 117°55'9 9.4
2014-Dec-10 08:33N 33°01' W 117°47'9 9.2
2014-Dec-10 07:33N 32°55' W 117°39'9 9.4
2014-Dec-10 06:33N 32°48' W 117°31'9 9.3
2014-Dec-10 05:33N 32°42' W 117°22'7 7.4
2014-Dec-10 04:33N 32°37' W 117°16'0 0.4
2014-Dec-10 03:27N 32°38' W 117°15'1 1.4
2014-Dec-10 02:29N 32°36' W 117°16'2 2.2
2014-Dec-10 01:31N 32°35' W 117°18'1 1.0
2014-Dec-10 00:33N 32°35' W 117°19'3 2.6
2014-Dec-09 23:33N 32°36' W 117°17'1 0.5
2014-Dec-09 22:33N 32°37' W 117°16'4 4.1
2014-Dec-09 21:34N 32°39' W 117°12'1 0.7
2014-Dec-09 20:33N 32°40' W 117°12'0 0.1
2014-Dec-09 19:34N 32°40' W 117°12'2 1.8
2014-Dec-09 18:33N 32°38' W 117°13'7 7.1
2014-Dec-09 17:33N 32°42' W 117°21'9 8.8
2014-Dec-09 16:33N 32°48' W 117°28'9 8.5
2014-Dec-09 15:33N 32°54' W 117°35'9 8.5
2014-Dec-09 14:33N 32°60' W 117°43'9 8.7
2014-Dec-09 13:33N 33°06' W 117°50'9 8.6
2014-Dec-09 12:33N 33°11' W 117°58'8 8.2
2014-Dec-09 11:33N 33°17' W 118°05'8 8.4
2014-Dec-09 10:33N 33°22' W 118°13'9 8.5
2014-Dec-09 09:33N 33°28' W 118°21'9 8.6
2014-Dec-09 08:34N 33°33' W 118°29'8 8.4
2014-Dec-09 07:33N 33°39' W 118°36'8 8.3
2014-Dec-09 06:33N 33°44' W 118°44'8 8.3
2014-Dec-09 05:33N 33°49' W 118°52'8 8.3
2014-Dec-09 04:34N 33°55' W 118°59'9 8.6
2014-Dec-09 03:34N 34°02' W 119°06'  
Track history (hours):
 
Tides and Currents Weather Stations Pressure Air Temp Water Temp Dewpoint Dewpoint Depression Visibility Wind Speed Wind Dir Waves Ship Positions

Diane G

Last reported at 2014-Dec-10 18:33 UTC. Time now 2014-Dec-20 20:11 UTC.
Position N 34°05' W 119°10'.
Warning: this ship's position is 10 days out of date.

Length 35 m; draft 2.5 m.

Type: Military. MMSI: 369970281.

Date/timePositionNaut miles runAvg speedWind from/ knotsBaromVisibWave heightAir tempDewpointWater temp
2014-Dec-10 18:33N 34°05' W 119°10'9 9.3
2014-Dec-10 17:34N 33°59' W 119°02'9 9.5
2014-Dec-10 16:33N 33°52' W 118°54'9 9.4
2014-Dec-10 15:33N 33°46' W 118°46'12 9.5
2014-Dec-10 14:20N 33°38' W 118°35'7 9.3
2014-Dec-10 13:32N 33°32' W 118°29'10 9.2
2014-Dec-10 12:30N 33°26' W 118°21'9 9.6
2014-Dec-10 11:33N 33°20' W 118°13'10 9.6
2014-Dec-10 10:33N 33°14' W 118°04'10 9.5
2014-Dec-10 09:33N 33°07' W 117°55'9 9.4
2014-Dec-10 08:33N 33°01' W 117°47'9 9.2
2014-Dec-10 07:33N 32°55' W 117°39'9 9.4
2014-Dec-10 06:33N 32°48' W 117°31'9 9.3
2014-Dec-10 05:33N 32°42' W 117°22'7 7.4
2014-Dec-10 04:33N 32°37' W 117°16'0 0.4
2014-Dec-10 03:27N 32°38' W 117°15'1 1.4
2014-Dec-10 02:29N 32°36' W 117°16'2 2.2
2014-Dec-10 01:31N 32°35' W 117°18'1 1.0
2014-Dec-10 00:33N 32°35' W 117°19'3 2.6
2014-Dec-09 23:33N 32°36' W 117°17'1 0.5
2014-Dec-09 22:33N 32°37' W 117°16'4 4.1
2014-Dec-09 21:34N 32°39' W 117°12'1 0.7
2014-Dec-09 20:33N 32°40' W 117°12'0 0.1
2014-Dec-09 19:34N 32°40' W 117°12'2 1.8
2014-Dec-09 18:33N 32°38' W 117°13'7 7.1
2014-Dec-09 17:33N 32°42' W 117°21'9 8.8
2014-Dec-09 16:33N 32°48' W 117°28'9 8.5
2014-Dec-09 15:33N 32°54' W 117°35'9 8.5
2014-Dec-09 14:33N 32°60' W 117°43'9 8.7
2014-Dec-09 13:33N 33°06' W 117°50'9 8.6
2014-Dec-09 12:33N 33°11' W 117°58'8 8.2
2014-Dec-09 11:33N 33°17' W 118°05'8 8.4
2014-Dec-09 10:33N 33°22' W 118°13'9 8.5
2014-Dec-09 09:33N 33°28' W 118°21'9 8.6
2014-Dec-09 08:34N 33°33' W 118°29'8 8.4
2014-Dec-09 07:33N 33°39' W 118°36'8 8.3
2014-Dec-09 06:33N 33°44' W 118°44'8 8.3
2014-Dec-09 05:33N 33°49' W 118°52'8 8.3
2014-Dec-09 04:34N 33°55' W 118°59'9 8.6
2014-Dec-09 03:34N 34°02' W 119°06'  

Dump ship's entire track history